createdAt,value
2022-12-06T00:01:11.551Z,49.10
2022-12-06T00:03:39.629Z,49.10
2022-12-06T00:06:10.801Z,48.90
2022-12-06T00:08:39.341Z,49.10
2022-12-06T00:11:13.222Z,49.90
2022-12-06T00:13:46.718Z,49.10
2022-12-06T00:16:16.133Z,50.10
2022-12-06T00:18:44.597Z,49.90
2022-12-06T00:21:21.919Z,49.90
2022-12-06T00:23:54.765Z,49.20
2022-12-06T00:26:22.937Z,49.20
2022-12-06T00:28:53.593Z,49.10
2022-12-06T00:31:22.972Z,49.90
2022-12-06T00:33:50.575Z,49.90
2022-12-06T00:36:19.843Z,49.90
2022-12-06T00:38:47.132Z,49.90
2022-12-06T00:41:19.521Z,50.00
2022-12-06T00:43:47.188Z,49.90
2022-12-06T00:46:20.362Z,49.90
2022-12-06T00:48:50.269Z,49.90
2022-12-06T00:51:18.217Z,49.90
2022-12-06T00:53:46.214Z,49.90
2022-12-06T00:56:13.381Z,49.10
2022-12-06T00:58:40.863Z,50.00
2022-12-06T01:01:29.256Z,49.10
2022-12-06T01:03:59.106Z,48.80
2022-12-06T01:06:29.396Z,49.20
2022-12-06T01:08:58.062Z,49.20
2022-12-06T01:11:25.838Z,50.00
2022-12-06T01:13:53.457Z,51.60
2022-12-06T01:16:26.046Z,49.20
2022-12-06T01:18:59.052Z,49.30
2022-12-06T01:21:27.136Z,51.30
2022-12-06T01:23:54.427Z,50.70
2022-12-06T01:26:27.467Z,51.60
2022-12-06T01:28:54.884Z,51.00
2022-12-06T01:31:22.091Z,49.30
2022-12-06T01:33:49.014Z,49.30
2022-12-06T01:36:21.932Z,49.30
2022-12-06T01:38:51.079Z,49.20
2022-12-06T01:41:19.409Z,51.50
2022-12-06T01:43:46.605Z,49.20
2022-12-06T01:46:29.869Z,50.30
2022-12-06T01:49:09.691Z,49.80
2022-12-06T01:51:37.106Z,49.80
2022-12-06T01:54:08.126Z,49.20
2022-12-06T01:56:35.216Z,49.90
2022-12-06T01:59:02.338Z,49.10
2022-12-06T02:01:30.743Z,49.10
2022-12-06T02:04:01.659Z,50.40
2022-12-06T02:06:30.778Z,51.40
2022-12-06T02:09:01.023Z,50.50
2022-12-06T02:11:33.512Z,49.10
2022-12-06T02:14:09.990Z,49.00
2022-12-06T02:16:51.604Z,49.40
2022-12-06T02:19:30.270Z,49.60
2022-12-06T02:22:28.216Z,49.00
2022-12-06T02:25:10.493Z,49.10
2022-12-06T02:28:14.863Z,49.00
2022-12-06T02:31:25.076Z,49.60
2022-12-06T02:34:14.324Z,50.40
2022-12-06T02:37:04.857Z,49.60
2022-12-06T02:39:46.984Z,49.60
2022-12-06T02:42:20.090Z,50.00
2022-12-06T02:45:12.107Z,49.00
2022-12-06T02:47:39.554Z,49.70
2022-12-06T02:50:14.317Z,49.00
2022-12-06T02:52:44.991Z,50.50
2022-12-06T02:55:13.341Z,49.00
2022-12-06T02:57:43.242Z,50.60
2022-12-06T03:00:46.564Z,49.80
2022-12-06T03:03:29.849Z,49.80
2022-12-06T03:06:01.474Z,49.10
2022-12-06T03:08:58.562Z,49.70
2022-12-06T03:11:31.839Z,49.60
2022-12-06T03:14:06.904Z,50.70
2022-12-06T03:16:49.913Z,50.10
2022-12-06T03:19:16.627Z,50.30
2022-12-06T03:21:52.638Z,49.10
2022-12-06T03:24:22.404Z,49.10
2022-12-06T03:26:51.173Z,49.10
2022-12-06T03:29:22.066Z,49.10
2022-12-06T03:31:49.885Z,50.10
2022-12-06T03:34:22.028Z,49.10
2022-12-06T03:36:50.705Z,51.30
2022-12-06T03:39:41.690Z,51.70
2022-12-06T03:42:10.264Z,49.70
2022-12-06T03:44:37.637Z,50.20
2022-12-06T03:47:10.947Z,49.10
2022-12-06T03:49:44.643Z,51.40
2022-12-06T03:52:11.487Z,49.10
2022-12-06T03:54:41.957Z,49.10
2022-12-06T03:57:10.085Z,49.80
2022-12-06T03:59:38.838Z,49.10
2022-12-06T04:02:05.827Z,49.10
2022-12-06T04:04:32.995Z,49.10
2022-12-06T04:06:59.745Z,51.60
2022-12-06T04:09:44.986Z,49.10
2022-12-06T04:12:30.543Z,51.30
2022-12-06T04:14:57.388Z,51.40
2022-12-06T04:17:42.574Z,49.10
2022-12-06T04:20:09.706Z,49.10
2022-12-06T04:22:55.976Z,49.10
2022-12-06T04:25:22.850Z,49.10
2022-12-06T04:28:08.126Z,49.10
2022-12-06T04:30:53.619Z,50.80
2022-12-06T04:33:39.139Z,51.30
2022-12-06T04:36:30.956Z,49.10
2022-12-06T04:38:57.943Z,49.90
2022-12-06T04:41:43.274Z,49.10
2022-12-06T04:44:10.343Z,51.70
2022-12-06T04:46:37.219Z,49.70
2022-12-06T04:49:04.046Z,48.90
2022-12-06T04:51:30.823Z,48.90
2022-12-06T04:53:58.580Z,48.80
2022-12-06T04:56:25.308Z,50.40
2022-12-06T04:58:53.303Z,48.70
2022-12-06T05:01:21.058Z,48.60
2022-12-06T05:03:47.754Z,48.70
2022-12-06T05:06:14.518Z,48.60
2022-12-06T05:08:41.205Z,48.60
2022-12-06T05:11:07.967Z,48.60
2022-12-06T05:13:35.308Z,48.60
2022-12-06T05:16:05.767Z,50.80
2022-12-06T05:18:33.711Z,47.90
2022-12-06T05:21:20.024Z,48.60
2022-12-06T05:23:49.617Z,50.30
2022-12-06T05:26:18.802Z,48.60
2022-12-06T05:28:46.895Z,48.60
2022-12-06T05:31:14.818Z,49.90
2022-12-06T05:33:42.998Z,51.00
2022-12-06T05:36:18.967Z,50.50
2022-12-06T05:38:51.126Z,50.70
2022-12-06T05:41:19.919Z,50.50
2022-12-06T05:43:46.705Z,48.60
2022-12-06T05:46:13.726Z,48.60
2022-12-06T05:48:40.638Z,48.90
2022-12-06T05:51:07.340Z,48.60
2022-12-06T05:53:34.216Z,48.60
2022-12-06T05:56:06.006Z,48.70
2022-12-06T05:58:32.870Z,49.40
2022-12-06T06:00:59.593Z,48.60
2022-12-06T06:03:26.617Z,48.70
2022-12-06T06:05:58.114Z,51.00
2022-12-06T06:08:25.094Z,49.80
2022-12-06T06:10:51.817Z,50.80
2022-12-06T06:13:18.589Z,48.70
2022-12-06T06:15:45.500Z,48.60
2022-12-06T06:18:12.154Z,48.70
2022-12-06T06:20:38.930Z,48.60
2022-12-06T06:23:05.611Z,48.60
2022-12-06T06:25:32.327Z,48.70
2022-12-06T06:27:59.146Z,48.60
2022-12-06T06:30:25.902Z,50.40
2022-12-06T06:32:54.696Z,48.60
2022-12-06T06:35:21.526Z,48.60
2022-12-06T06:37:48.256Z,48.60
2022-12-06T06:40:15.154Z,48.70
2022-12-06T06:42:41.938Z,48.70
2022-12-06T06:45:09.219Z,48.70
2022-12-06T06:47:36.021Z,48.70
2022-12-06T06:50:03.033Z,48.70
2022-12-06T06:52:29.963Z,48.70
2022-12-06T06:54:56.711Z,48.70
2022-12-06T06:57:23.463Z,48.70
2022-12-06T06:59:50.284Z,48.70
2022-12-06T07:02:17.691Z,48.70
2022-12-06T07:04:45.289Z,48.70
2022-12-06T07:07:19.275Z,48.70
2022-12-06T07:09:47.623Z,48.60
2022-12-06T07:12:14.596Z,48.60
2022-12-06T07:14:41.250Z,48.60
2022-12-06T07:17:08.146Z,48.60
2022-12-06T07:19:35.065Z,49.80
2022-12-06T07:22:01.840Z,48.60
2022-12-06T07:24:28.538Z,50.20
2022-12-06T07:26:56.724Z,48.60
2022-12-06T07:29:23.488Z,48.60
2022-12-06T07:31:50.170Z,48.50
2022-12-06T07:34:16.962Z,48.50
2022-12-06T07:36:43.671Z,48.50
2022-12-06T07:39:14.784Z,48.50
2022-12-06T07:45:03.025Z,48.70
2022-12-06T07:47:41.607Z,48.80
2022-12-06T07:50:17.920Z,48.90
2022-12-06T07:52:46.628Z,49.60
2022-12-06T07:55:14.716Z,49.30
2022-12-06T07:57:43.923Z,49.00
2022-12-06T08:00:16.488Z,49.00
2022-12-06T08:02:43.472Z,49.10
2022-12-06T08:05:10.752Z,49.10
2022-12-06T08:07:37.976Z,49.10
2022-12-06T08:10:05.734Z,49.10
2022-12-06T08:12:32.718Z,49.70
2022-12-06T08:15:00.414Z,49.10
2022-12-06T08:17:29.979Z,49.20
2022-12-06T08:19:57.079Z,50.60
2022-12-06T08:22:24.964Z,49.50
2022-12-06T08:24:51.784Z,50.90
2022-12-06T08:27:18.529Z,49.60
2022-12-06T08:32:15.647Z,50.10
2022-12-06T08:34:43.652Z,51.00
2022-12-06T08:37:11.633Z,51.70
2022-12-06T08:39:38.342Z,52.20
2022-12-06T08:42:06.282Z,52.30
2022-12-06T08:44:34.171Z,52.30
2022-12-06T08:47:02.502Z,52.30
2022-12-06T08:49:30.474Z,54.20
2022-12-06T08:51:58.517Z,53.50
2022-12-06T08:54:25.569Z,54.40
2022-12-06T08:56:52.934Z,52.80
2022-12-06T08:59:20.207Z,52.90
2022-12-06T09:01:47.462Z,52.90
2022-12-06T09:04:15.678Z,52.90
2022-12-06T09:06:43.950Z,53.00
2022-12-06T09:09:12.067Z,54.80
2022-12-06T09:11:40.420Z,53.00
2022-12-06T09:14:09.117Z,53.00
2022-12-06T09:16:37.987Z,55.00
2022-12-06T09:19:04.785Z,54.30
2022-12-06T09:21:32.925Z,53.10
2022-12-06T09:24:00.246Z,53.90
2022-12-06T09:26:27.735Z,54.10
2022-12-06T09:28:55.915Z,53.10
2022-12-06T09:31:26.448Z,54.40
2022-12-06T09:33:53.894Z,53.90
2022-12-06T09:36:29.426Z,53.80
2022-12-06T09:39:01.849Z,55.30
2022-12-06T09:41:58.434Z,55.70
2022-12-06T09:44:40.517Z,54.50
2022-12-06T09:47:20.599Z,53.90
2022-12-06T09:49:55.777Z,53.90
2022-12-06T09:52:59.056Z,53.90
2022-12-06T09:55:45.086Z,54.50
2022-12-06T09:58:36.429Z,53.80
2022-12-06T10:01:11.140Z,53.80
2022-12-06T10:03:49.687Z,53.80
2022-12-06T10:06:20.278Z,53.80
2022-12-06T10:08:55.920Z,56.20
2022-12-06T10:11:38.627Z,53.70
2022-12-06T10:14:25.046Z,53.60
2022-12-06T10:17:12.113Z,53.60
2022-12-06T10:19:51.089Z,54.20
2022-12-06T10:22:37.258Z,54.80
2022-12-06T10:25:16.165Z,54.70
2022-12-06T10:28:07.890Z,53.30
2022-12-06T10:30:42.399Z,53.90
2022-12-06T10:33:46.837Z,53.10
2022-12-06T10:36:18.017Z,53.10
2022-12-06T10:38:53.181Z,53.00
2022-12-06T10:41:28.998Z,53.10
2022-12-06T10:44:04.594Z,53.00
2022-12-06T10:47:07.019Z,52.90
2022-12-06T10:49:52.407Z,52.90
2022-12-06T10:52:37.667Z,53.50
2022-12-06T10:55:10.653Z,52.80
2022-12-06T10:57:43.459Z,53.30
2022-12-06T11:00:20.302Z,54.20
2022-12-06T11:03:11.414Z,52.60
2022-12-06T11:05:48.527Z,52.50
2022-12-06T11:08:27.379Z,53.10
2022-12-06T11:10:58.557Z,54.60
2022-12-06T11:13:37.318Z,53.00
2022-12-06T11:16:22.002Z,53.00
2022-12-06T11:18:49.602Z,52.90
2022-12-06T11:21:37.401Z,52.30
2022-12-06T11:24:20.135Z,52.80
2022-12-06T11:26:59.164Z,53.00
2022-12-06T11:29:25.968Z,54.00
2022-12-06T11:31:57.496Z,52.10
2022-12-06T11:34:31.387Z,53.30
2022-12-06T11:37:00.604Z,52.70
2022-12-06T11:39:28.760Z,52.00
2022-12-06T11:41:59.350Z,54.50
2022-12-06T11:44:29.333Z,52.00
2022-12-06T11:47:00.186Z,54.10
2022-12-06T11:49:36.703Z,54.40
2022-12-06T11:52:25.846Z,52.50
2022-12-06T11:54:59.062Z,52.40
2022-12-06T11:57:31.977Z,52.30
2022-12-06T12:00:20.852Z,52.90
2022-12-06T12:02:50.842Z,52.40
2022-12-06T12:05:20.103Z,52.00
2022-12-06T12:08:00.092Z,51.70
2022-12-06T12:10:36.004Z,53.10
2022-12-06T12:13:30.253Z,53.70
2022-12-06T12:16:03.584Z,52.60
2022-12-06T12:18:34.065Z,52.90
2022-12-06T12:21:02.337Z,53.30
2022-12-06T12:23:42.262Z,52.80
2022-12-06T12:26:19.260Z,52.80
2022-12-06T12:29:03.938Z,52.60
2022-12-06T12:31:31.218Z,53.30
2022-12-06T12:34:26.143Z,51.40
2022-12-06T12:36:56.819Z,51.90
2022-12-06T12:39:39.381Z,52.80
2022-12-06T12:42:30.022Z,51.90
2022-12-06T12:45:00.405Z,51.90
2022-12-06T12:47:27.429Z,53.50
2022-12-06T12:50:04.893Z,51.20
2022-12-06T12:52:37.142Z,51.20
2022-12-06T12:55:13.627Z,53.60
2022-12-06T12:57:41.647Z,51.20
2022-12-06T13:00:15.910Z,51.10
2022-12-06T13:02:44.527Z,51.10
2022-12-06T13:05:40.683Z,51.10
2022-12-06T13:08:26.428Z,51.00
2022-12-06T13:10:59.064Z,51.80
2022-12-06T13:13:42.778Z,50.90
2022-12-06T13:16:14.775Z,51.60
2022-12-06T13:18:46.851Z,50.90
2022-12-06T13:21:33.779Z,50.90
2022-12-06T13:24:12.847Z,51.00
2022-12-06T13:26:57.626Z,51.00
2022-12-06T13:29:33.915Z,51.10
2022-12-06T13:32:18.333Z,51.10
2022-12-06T13:34:50.875Z,51.10
2022-12-06T13:39:55.881Z,51.20
2022-12-06T13:42:42.620Z,51.20
2022-12-06T13:45:45.633Z,51.20
2022-12-06T13:48:24.406Z,51.10
2022-12-06T13:50:56.861Z,52.80
2022-12-06T13:53:26.221Z,51.10
2022-12-06T13:56:03.628Z,51.00
2022-12-06T13:58:38.282Z,51.00
2022-12-06T14:01:35.458Z,53.70
2022-12-06T14:04:42.634Z,50.90
2022-12-06T14:09:43.601Z,50.80
2022-12-06T14:12:25.032Z,50.70
2022-12-06T14:15:01.199Z,50.70
2022-12-06T14:18:01.559Z,50.70
2022-12-06T14:20:28.899Z,51.10
2022-12-06T14:22:56.035Z,51.40
2022-12-06T14:25:28.464Z,52.10
2022-12-06T14:28:12.800Z,52.00
2022-12-06T14:30:39.931Z,52.00
2022-12-06T14:33:23.585Z,50.60
2022-12-06T14:35:52.744Z,50.60
2022-12-06T14:38:27.748Z,51.90
2022-12-06T14:41:13.551Z,51.10
2022-12-06T14:43:42.209Z,52.40
2022-12-06T14:46:14.604Z,50.50
2022-12-06T14:49:00.186Z,52.40
2022-12-06T14:51:36.152Z,51.30
2022-12-06T14:54:27.618Z,50.70
2022-12-06T14:56:54.451Z,50.30
2022-12-06T15:00:03.018Z,52.60
2022-12-06T15:02:22.680Z,52.40
2022-12-06T15:04:49.566Z,50.20
2022-12-06T15:07:48.858Z,50.20
2022-12-06T15:10:25.605Z,52.00
2022-12-06T15:12:55.658Z,50.90
2022-12-06T15:15:38.973Z,50.90
2022-12-06T15:18:25.286Z,51.10
2022-12-06T15:20:53.501Z,50.80
2022-12-06T15:23:36.440Z,51.60
2022-12-06T15:26:05.596Z,50.90
2022-12-06T15:28:34.115Z,50.30
2022-12-06T15:31:01.464Z,53.30
2022-12-06T15:33:28.376Z,51.80
2022-12-06T15:35:55.274Z,50.40
2022-12-06T15:38:22.997Z,51.20
2022-12-06T15:40:51.285Z,50.40
2022-12-06T15:43:25.726Z,52.40
2022-12-06T15:45:54.246Z,50.40
2022-12-06T15:48:21.218Z,51.40
2022-12-06T15:50:49.005Z,50.30
2022-12-06T15:53:20.350Z,50.30
2022-12-06T15:55:47.532Z,50.30
2022-12-06T15:58:14.334Z,51.20
2022-12-06T16:00:41.175Z,50.30
2022-12-06T16:03:08.289Z,51.70
2022-12-06T16:05:35.420Z,52.50
2022-12-06T16:08:03.696Z,50.40
2022-12-06T16:11:03.067Z,51.10
2022-12-06T16:13:23.659Z,50.40
2022-12-06T16:15:52.458Z,51.50
2022-12-06T16:18:20.056Z,52.10
2022-12-06T16:20:47.520Z,52.00
2022-12-06T16:24:10.949Z,51.00
2022-12-06T16:26:23.195Z,50.30
2022-12-06T16:28:49.892Z,51.80
2022-12-06T16:31:16.702Z,50.30
2022-12-06T16:33:43.503Z,50.30
2022-12-06T16:36:17.981Z,50.30
2022-12-06T16:38:44.809Z,50.90
2022-12-06T16:41:37.419Z,51.10
2022-12-06T16:44:05.142Z,50.80
2022-12-06T16:46:34.683Z,51.20
2022-12-06T16:49:36.658Z,50.20
2022-12-06T16:51:49.560Z,52.00
2022-12-06T16:54:17.307Z,50.20
2022-12-06T16:56:45.738Z,52.60
2022-12-06T16:59:15.097Z,50.10
2022-12-06T17:01:53.401Z,50.00
2022-12-06T17:04:20.857Z,50.00
2022-12-06T17:06:48.090Z,51.70
2022-12-06T17:09:17.128Z,50.00
2022-12-06T17:12:02.195Z,50.00
2022-12-06T17:14:29.654Z,50.90
2022-12-06T17:16:57.041Z,50.00
2022-12-06T17:19:27.783Z,52.50
2022-12-06T17:21:55.094Z,50.70
2022-12-06T17:24:24.314Z,51.60
2022-12-06T17:26:51.098Z,52.70
2022-12-06T17:29:17.820Z,52.40
2022-12-06T17:31:45.009Z,50.00
2022-12-06T17:34:13.590Z,50.00
2022-12-06T17:36:40.788Z,52.70
2022-12-06T17:39:12.966Z,50.00
2022-12-06T17:41:58.207Z,50.00
2022-12-06T17:44:24.977Z,51.00
2022-12-06T17:46:51.935Z,50.00
2022-12-06T17:49:21.587Z,50.00
2022-12-06T17:51:48.584Z,51.70
2022-12-06T17:54:16.217Z,52.20
2022-12-06T17:56:49.092Z,50.60
2022-12-06T17:59:19.047Z,50.00
2022-12-06T18:04:33.259Z,50.00
2022-12-06T18:06:59.914Z,51.70
2022-12-06T18:09:26.692Z,50.00
2022-12-06T18:11:55.527Z,50.00
2022-12-06T18:14:22.170Z,52.30
2022-12-06T18:16:50.028Z,50.00
2022-12-06T18:19:19.433Z,50.00
2022-12-06T18:21:48.022Z,50.00
2022-12-06T18:24:27.950Z,50.60
2022-12-06T18:26:58.589Z,50.40
2022-12-06T18:29:25.343Z,50.90
2022-12-06T18:31:52.622Z,49.90
2022-12-06T18:34:20.175Z,49.90
2022-12-06T18:36:47.563Z,52.20
2022-12-06T18:39:16.996Z,49.90
2022-12-06T18:41:44.867Z,49.80
2022-12-06T18:44:12.684Z,51.70
2022-12-06T18:46:42.313Z,49.80
2022-12-06T18:49:11.408Z,49.80
2022-12-06T18:51:39.521Z,50.60
2022-12-06T18:54:07.966Z,50.50
2022-12-06T18:56:36.831Z,50.70
2022-12-06T18:59:06.450Z,51.00
2022-12-06T19:01:35.667Z,51.80
2022-12-06T19:04:04.079Z,50.20
2022-12-06T19:06:33.815Z,49.50
2022-12-06T19:09:08.118Z,49.50
2022-12-06T19:11:43.647Z,49.50
2022-12-06T19:14:10.533Z,51.00
2022-12-06T19:16:39.281Z,51.70
2022-12-06T19:19:15.449Z,50.50
2022-12-06T19:21:43.776Z,50.00
2022-12-06T19:24:12.601Z,49.30
2022-12-06T19:26:39.678Z,51.30
2022-12-06T19:29:06.431Z,50.00
2022-12-06T19:31:33.284Z,50.60
2022-12-06T19:34:00.732Z,49.20
2022-12-06T19:36:30.031Z,49.10
2022-12-06T19:39:04.214Z,49.10
2022-12-06T19:41:31.609Z,51.50
2022-12-06T19:44:19.031Z,49.00
2022-12-06T19:46:47.411Z,50.40
2022-12-06T19:49:16.274Z,51.40
2022-12-06T19:51:45.302Z,50.00
2022-12-06T19:54:16.596Z,50.40
2022-12-06T19:56:43.549Z,49.70
2022-12-06T19:59:13.362Z,49.00
2022-12-06T20:01:43.021Z,51.20
2022-12-06T20:04:21.065Z,49.30
2022-12-06T20:06:48.365Z,49.50
2022-12-06T20:09:17.045Z,50.00
2022-12-06T20:12:03.755Z,50.10
2022-12-06T20:14:47.391Z,49.70
2022-12-06T20:17:19.229Z,50.40
2022-12-06T20:19:46.579Z,50.80
2022-12-06T20:22:38.162Z,50.00
2022-12-06T20:25:05.302Z,49.60
2022-12-06T20:27:50.821Z,49.60
2022-12-06T20:30:18.794Z,49.10
2022-12-06T20:32:46.594Z,49.40
2022-12-06T20:35:13.499Z,50.00
2022-12-06T20:37:40.275Z,48.60
2022-12-06T20:40:08.166Z,51.20
2022-12-06T20:42:35.191Z,49.40
2022-12-06T20:45:05.326Z,48.50
2022-12-06T20:47:33.106Z,49.50
2022-12-06T20:50:01.241Z,49.30
2022-12-06T20:52:28.145Z,49.30
2022-12-06T20:54:55.363Z,48.50
2022-12-06T20:57:22.736Z,48.60
2022-12-06T20:59:55.452Z,50.00
2022-12-06T21:02:22.221Z,48.50
2022-12-06T21:04:48.964Z,48.50
2022-12-06T21:07:15.722Z,50.60
2022-12-06T21:09:42.438Z,48.50
2022-12-06T21:12:09.453Z,48.40
2022-12-06T21:14:36.278Z,48.40
2022-12-06T21:17:03.274Z,50.20
2022-12-06T21:19:31.039Z,47.70
2022-12-06T21:22:00.940Z,48.50
2022-12-06T21:24:27.886Z,48.50
2022-12-06T21:26:54.521Z,48.50
2022-12-06T21:29:30.360Z,48.50
2022-12-06T21:31:59.795Z,49.70
2022-12-06T21:34:26.562Z,49.90
2022-12-06T21:36:53.317Z,51.20
2022-12-06T21:39:20.086Z,48.50
2022-12-06T21:41:46.874Z,48.50
2022-12-06T21:44:13.599Z,49.20
2022-12-06T21:46:40.438Z,51.10
2022-12-06T21:49:07.234Z,48.60
2022-12-06T21:51:33.986Z,48.60
2022-12-06T21:54:01.342Z,48.70
2022-12-06T21:56:30.587Z,48.60
2022-12-06T21:59:00.999Z,50.70
2022-12-06T22:01:29.802Z,51.10
2022-12-06T22:03:58.942Z,49.40
2022-12-06T22:06:26.125Z,49.30
2022-12-06T22:09:01.640Z,50.00
2022-12-06T22:11:29.929Z,50.00
2022-12-06T22:13:58.307Z,49.90
2022-12-06T22:16:25.491Z,50.40
2022-12-06T22:18:54.940Z,48.70
2022-12-06T22:21:25.181Z,48.70
2022-12-06T22:23:52.528Z,48.70
2022-12-06T22:26:21.870Z,50.70
2022-12-06T22:28:49.451Z,51.00
2022-12-06T22:31:27.259Z,50.40
2022-12-06T22:33:55.918Z,49.30
2022-12-06T22:36:23.514Z,49.20
2022-12-06T22:38:51.769Z,50.30
2022-12-06T22:41:19.815Z,50.20
2022-12-06T22:43:50.537Z,50.00
2022-12-06T22:46:17.722Z,51.10
2022-12-06T22:48:44.610Z,50.10
2022-12-06T22:51:12.846Z,49.90
2022-12-06T22:53:41.673Z,49.70
2022-12-06T22:56:09.210Z,50.10
2022-12-06T22:58:36.258Z,50.80
2022-12-06T23:01:17.461Z,48.80
2022-12-06T23:03:45.907Z,49.80
2022-12-06T23:06:15.168Z,50.70
2022-12-06T23:08:42.524Z,50.90
2022-12-06T23:11:12.165Z,49.90
2022-12-06T23:13:39.214Z,50.90
2022-12-06T23:16:08.835Z,48.80
2022-12-06T23:18:36.643Z,49.50
2022-12-06T23:21:10.888Z,48.90
2022-12-06T23:23:39.190Z,49.50
2022-12-06T23:26:08.949Z,49.50
2022-12-06T23:28:36.850Z,50.40
2022-12-06T23:31:15.574Z,51.10
2022-12-06T23:33:43.949Z,50.00
2022-12-06T23:36:16.506Z,49.50
2022-12-06T23:38:43.500Z,49.60
2022-12-06T23:41:12.385Z,49.70
2022-12-06T23:43:40.041Z,50.30
2022-12-06T23:46:09.822Z,50.50
2022-12-06T23:48:36.900Z,50.70
2022-12-06T23:51:10.432Z,49.10
2022-12-06T23:53:37.386Z,51.20
2022-12-06T23:56:18.366Z,49.10
2022-12-06T23:58:46.649Z,51.20
